sensor_id;sensor_type;location;lat;lon;timestamp;P1;durP1;ratioP1;P2;durP2;ratioP2
16248;SDS011;8232;51.678;6.610;2022-08-30T00:00:23;5.45;;;2.72;;
16248;SDS011;8232;51.678;6.610;2022-08-30T00:03:08;6.63;;;3.00;;
16248;SDS011;8232;51.678;6.610;2022-08-30T00:05:38;5.55;;;2.55;;
16248;SDS011;8232;51.678;6.610;2022-08-30T00:08:06;6.50;;;2.90;;
16248;SDS011;8232;51.678;6.610;2022-08-30T00:10:33;5.30;;;2.67;;
16248;SDS011;8232;51.678;6.610;2022-08-30T00:13:02;6.00;;;2.75;;
16248;SDS011;8232;51.678;6.610;2022-08-30T00:15:30;7.80;;;2.78;;
16248;SDS011;8232;51.678;6.610;2022-08-30T00:17:58;8.20;;;3.03;;
16248;SDS011;8232;51.678;6.610;2022-08-30T00:20:25;5.30;;;2.67;;
16248;SDS011;8232;51.678;6.610;2022-08-30T00:22:54;13.73;;;3.40;;
16248;SDS011;8232;51.678;6.610;2022-08-30T00:25:22;4.93;;;2.88;;
16248;SDS011;8232;51.678;6.610;2022-08-30T00:27:49;7.30;;;2.63;;
16248;SDS011;8232;51.678;6.610;2022-08-30T00:30:18;6.03;;;2.97;;
16248;SDS011;8232;51.678;6.610;2022-08-30T00:32:45;10.75;;;3.00;;
16248;SDS011;8232;51.678;6.610;2022-08-30T00:35:14;3.92;;;2.95;;
16248;SDS011;8232;51.678;6.610;2022-08-30T00:37:44;7.68;;;3.25;;
16248;SDS011;8232;51.678;6.610;2022-08-30T00:40:12;4.43;;;2.35;;
16248;SDS011;8232;51.678;6.610;2022-08-30T00:42:40;4.03;;;2.88;;
16248;SDS011;8232;51.678;6.610;2022-08-30T00:45:09;6.75;;;3.22;;
16248;SDS011;8232;51.678;6.610;2022-08-30T00:47:40;6.85;;;3.30;;
16248;SDS011;8232;51.678;6.610;2022-08-30T00:50:07;4.95;;;2.85;;
16248;SDS011;8232;51.678;6.610;2022-08-30T00:52:35;5.43;;;2.78;;
16248;SDS011;8232;51.678;6.610;2022-08-30T00:55:06;54.63;;;6.47;;
16248;SDS011;8232;51.678;6.610;2022-08-30T00:57:34;7.78;;;3.30;;
16248;SDS011;8232;51.678;6.610;2022-08-30T01:00:03;11.45;;;2.90;;
16248;SDS011;8232;51.678;6.610;2022-08-30T01:02:31;17.10;;;3.65;;
16248;SDS011;8232;51.678;6.610;2022-08-30T01:05:00;30.75;;;5.13;;
16248;SDS011;8232;51.678;6.610;2022-08-30T01:07:29;10.20;;;3.15;;
16248;SDS011;8232;51.678;6.610;2022-08-30T01:09:57;7.28;;;3.50;;
16248;SDS011;8232;51.678;6.610;2022-08-30T01:12:24;7.40;;;3.58;;
16248;SDS011;8232;51.678;6.610;2022-08-30T01:14:51;14.40;;;3.28;;
16248;SDS011;8232;51.678;6.610;2022-08-30T01:17:18;4.35;;;2.88;;
16248;SDS011;8232;51.678;6.610;2022-08-30T01:19:46;4.82;;;3.10;;
16248;SDS011;8232;51.678;6.610;2022-08-30T01:22:19;7.10;;;3.10;;
16248;SDS011;8232;51.678;6.610;2022-08-30T01:24:53;4.72;;;3.13;;
16248;SDS011;8232;51.678;6.610;2022-08-30T01:27:23;5.25;;;3.22;;
16248;SDS011;8232;51.678;6.610;2022-08-30T01:29:51;5.53;;;3.33;;
16248;SDS011;8232;51.678;6.610;2022-08-30T01:32:20;3.70;;;2.70;;
16248;SDS011;8232;51.678;6.610;2022-08-30T01:34:49;5.15;;;2.67;;
16248;SDS011;8232;51.678;6.610;2022-08-30T01:37:17;7.53;;;3.10;;
16248;SDS011;8232;51.678;6.610;2022-08-30T01:39:48;3.50;;;2.60;;
16248;SDS011;8232;51.678;6.610;2022-08-30T01:42:17;2.72;;;2.53;;
16248;SDS011;8232;51.678;6.610;2022-08-30T01:44:44;4.55;;;3.13;;
16248;SDS011;8232;51.678;6.610;2022-08-30T01:47:13;3.67;;;2.78;;
16248;SDS011;8232;51.678;6.610;2022-08-30T01:49:42;7.82;;;2.90;;
16248;SDS011;8232;51.678;6.610;2022-08-30T01:52:09;3.95;;;2.88;;
16248;SDS011;8232;51.678;6.610;2022-08-30T01:54:36;9.45;;;3.17;;
16248;SDS011;8232;51.678;6.610;2022-08-30T01:57:05;5.47;;;2.90;;
16248;SDS011;8232;51.678;6.610;2022-08-30T01:59:35;5.80;;;2.88;;
16248;SDS011;8232;51.678;6.610;2022-08-30T02:02:04;4.63;;;2.88;;
16248;SDS011;8232;51.678;6.610;2022-08-30T02:04:31;7.47;;;2.90;;
16248;SDS011;8232;51.678;6.610;2022-08-30T02:07:00;11.23;;;3.17;;
16248;SDS011;8232;51.678;6.610;2022-08-30T02:09:27;4.63;;;3.08;;
16248;SDS011;8232;51.678;6.610;2022-08-30T02:11:54;11.40;;;3.10;;
16248;SDS011;8232;51.678;6.610;2022-08-30T02:14:21;11.25;;;3.70;;
16248;SDS011;8232;51.678;6.610;2022-08-30T02:16:49;4.80;;;3.10;;
16248;SDS011;8232;51.678;6.610;2022-08-30T02:19:16;6.05;;;2.97;;
16248;SDS011;8232;51.678;6.610;2022-08-30T02:21:43;5.95;;;2.50;;
16248;SDS011;8232;51.678;6.610;2022-08-30T02:24:10;9.27;;;3.53;;
16248;SDS011;8232;51.678;6.610;2022-08-30T02:26:37;5.30;;;3.00;;
16248;SDS011;8232;51.678;6.610;2022-08-30T02:29:04;5.85;;;3.20;;
16248;SDS011;8232;51.678;6.610;2022-08-30T02:31:31;16.30;;;3.90;;
16248;SDS011;8232;51.678;6.610;2022-08-30T02:33:59;10.75;;;3.58;;
16248;SDS011;8232;51.678;6.610;2022-08-30T02:36:26;30.55;;;4.68;;
16248;SDS011;8232;51.678;6.610;2022-08-30T02:38:53;8.68;;;3.72;;
16248;SDS011;8232;51.678;6.610;2022-08-30T02:41:20;8.35;;;3.55;;
16248;SDS011;8232;51.678;6.610;2022-08-30T02:43:48;6.28;;;3.75;;
16248;SDS011;8232;51.678;6.610;2022-08-30T02:46:16;10.50;;;3.80;;
16248;SDS011;8232;51.678;6.610;2022-08-30T02:48:43;5.60;;;3.65;;
16248;SDS011;8232;51.678;6.610;2022-08-30T02:51:12;6.00;;;3.80;;
16248;SDS011;8232;51.678;6.610;2022-08-30T02:53:39;21.75;;;4.95;;
16248;SDS011;8232;51.678;6.610;2022-08-30T02:56:07;12.95;;;3.95;;
16248;SDS011;8232;51.678;6.610;2022-08-30T02:58:34;16.33;;;4.15;;
16248;SDS011;8232;51.678;6.610;2022-08-30T03:01:02;5.07;;;3.80;;
16248;SDS011;8232;51.678;6.610;2022-08-30T03:03:29;7.55;;;4.28;;
16248;SDS011;8232;51.678;6.610;2022-08-30T03:05:56;11.43;;;4.75;;
16248;SDS011;8232;51.678;6.610;2022-08-30T03:08:24;28.67;;;5.82;;
16248;SDS011;8232;51.678;6.610;2022-08-30T03:10:51;10.65;;;4.50;;
16248;SDS011;8232;51.678;6.610;2022-08-30T03:13:18;11.57;;;4.82;;
16248;SDS011;8232;51.678;6.610;2022-08-30T03:15:45;8.38;;;4.43;;
16248;SDS011;8232;51.678;6.610;2022-08-30T03:18:14;23.08;;;4.70;;
16248;SDS011;8232;51.678;6.610;2022-08-30T03:20:41;5.53;;;4.38;;
16248;SDS011;8232;51.678;6.610;2022-08-30T03:23:08;8.65;;;4.93;;
16248;SDS011;8232;51.678;6.610;2022-08-30T03:25:36;19.58;;;5.30;;
16248;SDS011;8232;51.678;6.610;2022-08-30T03:28:03;7.40;;;5.25;;
16248;SDS011;8232;51.678;6.610;2022-08-30T03:30:31;6.90;;;4.20;;
16248;SDS011;8232;51.678;6.610;2022-08-30T03:32:59;8.68;;;4.78;;
16248;SDS011;8232;51.678;6.610;2022-08-30T03:35:27;5.40;;;4.30;;
16248;SDS011;8232;51.678;6.610;2022-08-30T03:37:55;10.65;;;5.20;;
16248;SDS011;8232;51.678;6.610;2022-08-30T03:40:23;19.08;;;5.63;;
16248;SDS011;8232;51.678;6.610;2022-08-30T03:42:51;8.05;;;4.88;;
16248;SDS011;8232;51.678;6.610;2022-08-30T03:45:18;12.63;;;6.07;;
16248;SDS011;8232;51.678;6.610;2022-08-30T03:47:45;6.65;;;5.10;;
16248;SDS011;8232;51.678;6.610;2022-08-30T03:50:13;6.95;;;5.20;;
16248;SDS011;8232;51.678;6.610;2022-08-30T03:52:40;6.40;;;4.95;;
16248;SDS011;8232;51.678;6.610;2022-08-30T03:55:09;7.00;;;4.68;;
16248;SDS011;8232;51.678;6.610;2022-08-30T03:57:36;10.95;;;5.30;;
16248;SDS011;8232;51.678;6.610;2022-08-30T04:00:06;13.15;;;5.85;;
16248;SDS011;8232;51.678;6.610;2022-08-30T04:02:34;12.55;;;5.93;;
16248;SDS011;8232;51.678;6.610;2022-08-30T04:05:01;6.07;;;5.25;;
16248;SDS011;8232;51.678;6.610;2022-08-30T04:07:28;18.60;;;6.40;;
16248;SDS011;8232;51.678;6.610;2022-08-30T04:09:55;10.93;;;6.63;;
16248;SDS011;8232;51.678;6.610;2022-08-30T04:12:22;20.30;;;6.28;;
16248;SDS011;8232;51.678;6.610;2022-08-30T04:14:49;18.10;;;6.55;;
16248;SDS011;8232;51.678;6.610;2022-08-30T04:17:17;10.68;;;5.60;;
16248;SDS011;8232;51.678;6.610;2022-08-30T04:19:44;11.75;;;6.28;;
16248;SDS011;8232;51.678;6.610;2022-08-30T04:22:11;8.27;;;5.80;;
16248;SDS011;8232;51.678;6.610;2022-08-30T04:24:38;10.00;;;6.20;;
16248;SDS011;8232;51.678;6.610;2022-08-30T04:27:05;10.80;;;5.97;;
16248;SDS011;8232;51.678;6.610;2022-08-30T04:29:33;11.00;;;6.28;;
16248;SDS011;8232;51.678;6.610;2022-08-30T04:32:00;17.55;;;6.50;;
16248;SDS011;8232;51.678;6.610;2022-08-30T04:34:28;10.43;;;6.38;;
16248;SDS011;8232;51.678;6.610;2022-08-30T04:36:55;10.95;;;6.20;;
16248;SDS011;8232;51.678;6.610;2022-08-30T04:39:22;15.77;;;6.78;;
16248;SDS011;8232;51.678;6.610;2022-08-30T04:41:49;8.18;;;5.53;;
16248;SDS011;8232;51.678;6.610;2022-08-30T04:44:16;19.98;;;6.60;;
16248;SDS011;8232;51.678;6.610;2022-08-30T04:46:42;24.42;;;7.82;;
16248;SDS011;8232;51.678;6.610;2022-08-30T04:49:09;10.98;;;6.72;;
16248;SDS011;8232;51.678;6.610;2022-08-30T04:51:37;15.82;;;6.95;;
16248;SDS011;8232;51.678;6.610;2022-08-30T04:54:04;25.58;;;7.15;;
16248;SDS011;8232;51.678;6.610;2022-08-30T04:56:31;18.33;;;6.43;;
16248;SDS011;8232;51.678;6.610;2022-08-30T04:58:58;10.15;;;6.10;;
16248;SDS011;8232;51.678;6.610;2022-08-30T05:01:26;11.38;;;7.22;;
16248;SDS011;8232;51.678;6.610;2022-08-30T05:03:55;19.90;;;6.82;;
16248;SDS011;8232;51.678;6.610;2022-08-30T05:06:23;9.40;;;6.60;;
16248;SDS011;8232;51.678;6.610;2022-08-30T05:08:53;9.40;;;6.22;;
16248;SDS011;8232;51.678;6.610;2022-08-30T05:11:21;8.63;;;6.78;;
16248;SDS011;8232;51.678;6.610;2022-08-30T05:13:48;8.52;;;5.78;;
16248;SDS011;8232;51.678;6.610;2022-08-30T05:16:15;9.13;;;5.97;;
16248;SDS011;8232;51.678;6.610;2022-08-30T05:18:43;8.90;;;6.18;;
16248;SDS011;8232;51.678;6.610;2022-08-30T05:21:11;9.15;;;5.80;;
16248;SDS011;8232;51.678;6.610;2022-08-30T05:23:40;10.70;;;6.00;;
16248;SDS011;8232;51.678;6.610;2022-08-30T05:26:10;6.55;;;5.93;;
16248;SDS011;8232;51.678;6.610;2022-08-30T05:28:40;9.52;;;5.60;;
16248;SDS011;8232;51.678;6.610;2022-08-30T05:31:11;9.63;;;6.68;;
16248;SDS011;8232;51.678;6.610;2022-08-30T05:33:40;10.38;;;6.13;;
16248;SDS011;8232;51.678;6.610;2022-08-30T05:36:07;8.60;;;6.07;;
16248;SDS011;8232;51.678;6.610;2022-08-30T05:38:35;20.77;;;6.60;;
16248;SDS011;8232;51.678;6.610;2022-08-30T05:41:02;7.88;;;6.13;;
16248;SDS011;8232;51.678;6.610;2022-08-30T05:43:31;9.25;;;5.65;;
16248;SDS011;8232;51.678;6.610;2022-08-30T05:45:58;16.02;;;5.82;;
16248;SDS011;8232;51.678;6.610;2022-08-30T05:48:26;14.82;;;6.35;;
16248;SDS011;8232;51.678;6.610;2022-08-30T05:51:03;7.22;;;5.70;;
16248;SDS011;8232;51.678;6.610;2022-08-30T05:53:32;6.35;;;5.75;;
16248;SDS011;8232;51.678;6.610;2022-08-30T05:56:00;11.95;;;5.80;;
16248;SDS011;8232;51.678;6.610;2022-08-30T05:58:31;8.50;;;6.07;;
16248;SDS011;8232;51.678;6.610;2022-08-30T06:00:58;9.48;;;5.40;;
16248;SDS011;8232;51.678;6.610;2022-08-30T06:03:25;8.43;;;5.60;;
16248;SDS011;8232;51.678;6.610;2022-08-30T06:05:53;11.63;;;5.60;;
16248;SDS011;8232;51.678;6.610;2022-08-30T06:08:20;6.63;;;5.38;;
16248;SDS011;8232;51.678;6.610;2022-08-30T06:10:47;7.70;;;5.38;;
16248;SDS011;8232;51.678;6.610;2022-08-30T06:13:14;4.90;;;4.05;;
16248;SDS011;8232;51.678;6.610;2022-08-30T06:15:43;6.95;;;3.88;;
16248;SDS011;8232;51.678;6.610;2022-08-30T06:18:11;11.45;;;4.60;;
16248;SDS011;8232;51.678;6.610;2022-08-30T06:20:39;11.20;;;4.40;;
16248;SDS011;8232;51.678;6.610;2022-08-30T06:23:07;7.40;;;4.15;;
16248;SDS011;8232;51.678;6.610;2022-08-30T06:25:34;7.15;;;3.85;;
16248;SDS011;8232;51.678;6.610;2022-08-30T06:28:02;8.18;;;3.90;;
16248;SDS011;8232;51.678;6.610;2022-08-30T06:30:29;4.70;;;3.55;;
16248;SDS011;8232;51.678;6.610;2022-08-30T06:32:57;5.97;;;3.60;;
16248;SDS011;8232;51.678;6.610;2022-08-30T06:35:25;8.55;;;3.92;;
16248;SDS011;8232;51.678;6.610;2022-08-30T06:37:52;8.57;;;3.40;;
16248;SDS011;8232;51.678;6.610;2022-08-30T06:40:18;7.97;;;3.92;;
16248;SDS011;8232;51.678;6.610;2022-08-30T06:42:47;12.07;;;4.05;;
16248;SDS011;8232;51.678;6.610;2022-08-30T06:45:14;7.32;;;3.38;;
16248;SDS011;8232;51.678;6.610;2022-08-30T06:47:41;6.90;;;3.30;;
16248;SDS011;8232;51.678;6.610;2022-08-30T06:50:10;10.98;;;3.58;;
16248;SDS011;8232;51.678;6.610;2022-08-30T06:52:38;12.77;;;3.30;;
16248;SDS011;8232;51.678;6.610;2022-08-30T06:55:06;8.18;;;3.33;;
16248;SDS011;8232;51.678;6.610;2022-08-30T06:57:33;8.18;;;3.10;;
16248;SDS011;8232;51.678;6.610;2022-08-30T07:00:00;7.13;;;2.75;;
16248;SDS011;8232;51.678;6.610;2022-08-30T07:02:29;4.15;;;2.80;;
16248;SDS011;8232;51.678;6.610;2022-08-30T07:04:56;8.77;;;3.17;;
16248;SDS011;8232;51.678;6.610;2022-08-30T07:07:24;5.43;;;2.65;;
16248;SDS011;8232;51.678;6.610;2022-08-30T07:09:51;5.60;;;2.78;;
16248;SDS011;8232;51.678;6.610;2022-08-30T07:12:19;5.85;;;2.75;;
16248;SDS011;8232;51.678;6.610;2022-08-30T07:14:46;3.60;;;2.38;;
16248;SDS011;8232;51.678;6.610;2022-08-30T07:17:13;4.25;;;2.70;;
16248;SDS011;8232;51.678;6.610;2022-08-30T07:19:57;4.53;;;2.45;;
16248;SDS011;8232;51.678;6.610;2022-08-30T07:22:25;2.92;;;2.17;;
16248;SDS011;8232;51.678;6.610;2022-08-30T07:24:53;4.38;;;2.30;;
16248;SDS011;8232;51.678;6.610;2022-08-30T07:27:20;4.15;;;1.92;;
16248;SDS011;8232;51.678;6.610;2022-08-30T07:29:47;3.10;;;2.30;;
16248;SDS011;8232;51.678;6.610;2022-08-30T07:32:14;4.60;;;2.03;;
16248;SDS011;8232;51.678;6.610;2022-08-30T07:34:41;5.30;;;2.30;;
16248;SDS011;8232;51.678;6.610;2022-08-30T07:37:07;4.38;;;2.03;;
16248;SDS011;8232;51.678;6.610;2022-08-30T07:39:36;12.80;;;2.13;;
16248;SDS011;8232;51.678;6.610;2022-08-30T07:42:03;5.53;;;1.80;;
16248;SDS011;8232;51.678;6.610;2022-08-30T07:44:30;5.93;;;2.33;;
16248;SDS011;8232;51.678;6.610;2022-08-30T07:46:57;5.93;;;2.22;;
16248;SDS011;8232;51.678;6.610;2022-08-30T07:49:24;8.23;;;1.85;;
16248;SDS011;8232;51.678;6.610;2022-08-30T07:51:50;2.50;;;1.90;;
16248;SDS011;8232;51.678;6.610;2022-08-30T07:54:17;4.90;;;1.80;;
16248;SDS011;8232;51.678;6.610;2022-08-30T07:56:45;8.13;;;1.95;;
16248;SDS011;8232;51.678;6.610;2022-08-30T07:59:12;5.63;;;1.77;;
16248;SDS011;8232;51.678;6.610;2022-08-30T08:01:39;5.60;;;1.90;;
16248;SDS011;8232;51.678;6.610;2022-08-30T08:04:06;2.72;;;1.65;;
16248;SDS011;8232;51.678;6.610;2022-08-30T08:06:36;3.58;;;1.52;;
16248;SDS011;8232;51.678;6.610;2022-08-30T08:09:04;7.68;;;1.55;;
16248;SDS011;8232;51.678;6.610;2022-08-30T08:11:31;6.13;;;1.65;;
16248;SDS011;8232;51.678;6.610;2022-08-30T08:14:01;2.47;;;1.33;;
16248;SDS011;8232;51.678;6.610;2022-08-30T08:16:29;3.10;;;1.08;;
16248;SDS011;8232;51.678;6.610;2022-08-30T08:18:58;4.07;;;1.45;;
16248;SDS011;8232;51.678;6.610;2022-08-30T08:21:25;6.40;;;1.60;;
16248;SDS011;8232;51.678;6.610;2022-08-30T08:23:53;3.97;;;1.15;;
16248;SDS011;8232;51.678;6.610;2022-08-30T08:26:19;4.28;;;1.42;;
16248;SDS011;8232;51.678;6.610;2022-08-30T08:28:47;4.22;;;1.33;;
16248;SDS011;8232;51.678;6.610;2022-08-30T08:31:16;4.85;;;1.10;;
16248;SDS011;8232;51.678;6.610;2022-08-30T08:33:45;3.25;;;1.27;;
16248;SDS011;8232;51.678;6.610;2022-08-30T08:36:12;1.33;;;1.00;;
16248;SDS011;8232;51.678;6.610;2022-08-30T08:38:40;12.80;;;1.90;;
16248;SDS011;8232;51.678;6.610;2022-08-30T08:41:08;8.30;;;1.27;;
16248;SDS011;8232;51.678;6.610;2022-08-30T08:43:45;4.20;;;1.27;;
16248;SDS011;8232;51.678;6.610;2022-08-30T08:46:15;2.50;;;1.45;;
16248;SDS011;8232;51.678;6.610;2022-08-30T08:48:48;4.28;;;1.00;;
16248;SDS011;8232;51.678;6.610;2022-08-30T08:51:18;4.40;;;1.50;;
16248;SDS011;8232;51.678;6.610;2022-08-30T08:54:07;2.70;;;1.50;;
16248;SDS011;8232;51.678;6.610;2022-08-30T08:56:36;2.83;;;1.10;;
16248;SDS011;8232;51.678;6.610;2022-08-30T08:59:04;5.68;;;1.45;;
16248;SDS011;8232;51.678;6.610;2022-08-30T09:01:35;2.85;;;1.30;;
16248;SDS011;8232;51.678;6.610;2022-08-30T09:04:04;5.38;;;1.88;;
16248;SDS011;8232;51.678;6.610;2022-08-30T09:06:41;5.43;;;2.72;;
16248;SDS011;8232;51.678;6.610;2022-08-30T09:09:13;6.45;;;1.40;;
16248;SDS011;8232;51.678;6.610;2022-08-30T09:11:43;4.07;;;1.30;;
16248;SDS011;8232;51.678;6.610;2022-08-30T09:14:13;1.85;;;1.33;;
16248;SDS011;8232;51.678;6.610;2022-08-30T09:16:46;2.95;;;1.10;;
16248;SDS011;8232;51.678;6.610;2022-08-30T09:19:34;6.97;;;1.30;;
16248;SDS011;8232;51.678;6.610;2022-08-30T09:22:21;4.10;;;1.40;;
16248;SDS011;8232;51.678;6.610;2022-08-30T09:24:52;4.18;;;1.48;;
16248;SDS011;8232;51.678;6.610;2022-08-30T09:27:23;2.70;;;1.17;;
16248;SDS011;8232;51.678;6.610;2022-08-30T09:29:55;5.25;;;1.40;;
16248;SDS011;8232;51.678;6.610;2022-08-30T09:32:26;1.88;;;1.30;;
16248;SDS011;8232;51.678;6.610;2022-08-30T09:34:56;4.28;;;1.40;;
16248;SDS011;8232;51.678;6.610;2022-08-30T09:37:24;4.50;;;1.27;;
16248;SDS011;8232;51.678;6.610;2022-08-30T09:39:54;2.75;;;1.35;;
16248;SDS011;8232;51.678;6.610;2022-08-30T09:42:22;4.63;;;1.30;;
16248;SDS011;8232;51.678;6.610;2022-08-30T09:44:51;3.08;;;1.27;;
16248;SDS011;8232;51.678;6.610;2022-08-30T09:47:35;4.85;;;2.10;;
16248;SDS011;8232;51.678;6.610;2022-08-30T09:50:05;2.20;;;1.42;;
16248;SDS011;8232;51.678;6.610;2022-08-30T09:52:41;4.85;;;1.40;;
16248;SDS011;8232;51.678;6.610;2022-08-30T09:55:18;8.35;;;1.83;;
16248;SDS011;8232;51.678;6.610;2022-08-30T09:58:07;2.42;;;1.50;;
16248;SDS011;8232;51.678;6.610;2022-08-30T10:00:39;2.38;;;1.33;;
16248;SDS011;8232;51.678;6.610;2022-08-30T10:03:21;6.75;;;1.45;;
16248;SDS011;8232;51.678;6.610;2022-08-30T10:05:55;3.70;;;1.35;;
16248;SDS011;8232;51.678;6.610;2022-08-30T10:08:30;8.27;;;1.85;;
16248;SDS011;8232;51.678;6.610;2022-08-30T10:11:03;10.82;;;2.00;;
16248;SDS011;8232;51.678;6.610;2022-08-30T10:13:37;4.32;;;1.88;;
16248;SDS011;8232;51.678;6.610;2022-08-30T10:16:18;1.92;;;1.23;;
16248;SDS011;8232;51.678;6.610;2022-08-30T10:18:57;5.47;;;1.40;;
16248;SDS011;8232;51.678;6.610;2022-08-30T10:21:34;2.67;;;1.45;;
16248;SDS011;8232;51.678;6.610;2022-08-30T10:24:06;6.13;;;1.50;;
16248;SDS011;8232;51.678;6.610;2022-08-30T10:26:37;3.65;;;1.05;;
16248;SDS011;8232;51.678;6.610;2022-08-30T10:29:09;3.47;;;1.50;;
16248;SDS011;8232;51.678;6.610;2022-08-30T10:31:43;5.25;;;1.35;;
16248;SDS011;8232;51.678;6.610;2022-08-30T10:34:15;3.78;;;1.50;;
16248;SDS011;8232;51.678;6.610;2022-08-30T10:36:47;5.90;;;1.40;;
16248;SDS011;8232;51.678;6.610;2022-08-30T10:39:19;2.33;;;1.33;;
16248;SDS011;8232;51.678;6.610;2022-08-30T10:41:51;1.98;;;1.10;;
16248;SDS011;8232;51.678;6.610;2022-08-30T10:44:24;5.32;;;1.42;;
16248;SDS011;8232;51.678;6.610;2022-08-30T10:46:59;5.03;;;1.52;;
16248;SDS011;8232;51.678;6.610;2022-08-30T10:49:36;7.38;;;1.90;;
16248;SDS011;8232;51.678;6.610;2022-08-30T10:52:12;5.20;;;1.90;;
16248;SDS011;8232;51.678;6.610;2022-08-30T10:54:47;4.90;;;1.30;;
16248;SDS011;8232;51.678;6.610;2022-08-30T10:57:16;2.80;;;1.20;;
16248;SDS011;8232;51.678;6.610;2022-08-30T10:59:45;5.45;;;2.53;;
16248;SDS011;8232;51.678;6.610;2022-08-30T11:02:38;5.15;;;1.40;;
16248;SDS011;8232;51.678;6.610;2022-08-30T11:05:28;3.75;;;1.30;;
16248;SDS011;8232;51.678;6.610;2022-08-30T11:08:09;3.17;;;1.40;;
16248;SDS011;8232;51.678;6.610;2022-08-30T11:10:49;3.38;;;1.52;;
16248;SDS011;8232;51.678;6.610;2022-08-30T11:13:24;4.57;;;1.65;;
16248;SDS011;8232;51.678;6.610;2022-08-30T11:15:55;7.88;;;1.50;;
16248;SDS011;8232;51.678;6.610;2022-08-30T11:18:27;3.80;;;1.70;;
16248;SDS011;8232;51.678;6.610;2022-08-30T11:23:56;1.83;;;1.30;;
16248;SDS011;8232;51.678;6.610;2022-08-30T11:26:53;1.80;;;1.17;;
16248;SDS011;8232;51.678;6.610;2022-08-30T11:29:36;2.65;;;1.17;;
16248;SDS011;8232;51.678;6.610;2022-08-30T11:32:22;4.80;;;1.50;;
16248;SDS011;8232;51.678;6.610;2022-08-30T11:35:10;3.83;;;1.52;;
16248;SDS011;8232;51.678;6.610;2022-08-30T11:38:09;6.15;;;1.58;;
16248;SDS011;8232;51.678;6.610;2022-08-30T11:40:45;4.82;;;1.60;;
16248;SDS011;8232;51.678;6.610;2022-08-30T11:46:15;1.73;;;1.20;;
16248;SDS011;8232;51.678;6.610;2022-08-30T11:48:47;3.92;;;1.52;;
16248;SDS011;8232;51.678;6.610;2022-08-30T11:54:25;6.60;;;1.50;;
16248;SDS011;8232;51.678;6.610;2022-08-30T11:57:01;7.85;;;1.80;;
16248;SDS011;8232;51.678;6.610;2022-08-30T11:59:37;2.70;;;1.27;;
16248;SDS011;8232;51.678;6.610;2022-08-30T12:14:31;8.05;;;1.40;;
16248;SDS011;8232;51.678;6.610;2022-08-30T12:17:09;1.50;;;1.40;;
16248;SDS011;8232;51.678;6.610;2022-08-30T12:19:57;2.13;;;1.52;;
16248;SDS011;8232;51.678;6.610;2022-08-30T12:22:25;6.22;;;1.63;;
16248;SDS011;8232;51.678;6.610;2022-08-30T12:24:54;6.57;;;1.77;;
16248;SDS011;8232;51.678;6.610;2022-08-30T12:27:24;3.30;;;1.35;;
16248;SDS011;8232;51.678;6.610;2022-08-30T12:29:53;3.33;;;1.58;;
16248;SDS011;8232;51.678;6.610;2022-08-30T12:32:23;2.30;;;1.15;;
16248;SDS011;8232;51.678;6.610;2022-08-30T12:34:52;3.83;;;1.60;;
16248;SDS011;8232;51.678;6.610;2022-08-30T12:37:21;3.55;;;1.42;;
16248;SDS011;8232;51.678;6.610;2022-08-30T12:39:58;3.72;;;1.40;;
16248;SDS011;8232;51.678;6.610;2022-08-30T12:42:30;4.72;;;1.70;;
16248;SDS011;8232;51.678;6.610;2022-08-30T12:45:00;3.03;;;1.27;;
16248;SDS011;8232;51.678;6.610;2022-08-30T12:47:31;4.35;;;1.77;;
16248;SDS011;8232;51.678;6.610;2022-08-30T12:50:04;1.88;;;1.20;;
16248;SDS011;8232;51.678;6.610;2022-08-30T12:52:33;9.63;;;1.60;;
16248;SDS011;8232;51.678;6.610;2022-08-30T12:55:05;5.10;;;1.60;;
16248;SDS011;8232;51.678;6.610;2022-08-30T12:57:39;5.10;;;1.42;;
16248;SDS011;8232;51.678;6.610;2022-08-30T13:00:07;3.08;;;1.73;;
16248;SDS011;8232;51.678;6.610;2022-08-30T13:02:45;5.10;;;1.50;;
16248;SDS011;8232;51.678;6.610;2022-08-30T13:08:15;3.95;;;2.03;;
16248;SDS011;8232;51.678;6.610;2022-08-30T13:10:49;4.70;;;1.80;;
16248;SDS011;8232;51.678;6.610;2022-08-30T13:13:27;7.10;;;1.70;;
16248;SDS011;8232;51.678;6.610;2022-08-30T13:16:10;8.07;;;2.00;;
16248;SDS011;8232;51.678;6.610;2022-08-30T13:18:47;3.42;;;1.45;;
16248;SDS011;8232;51.678;6.610;2022-08-30T13:21:26;2.42;;;1.70;;
16248;SDS011;8232;51.678;6.610;2022-08-30T13:23:55;2.97;;;1.52;;
16248;SDS011;8232;51.678;6.610;2022-08-30T13:26:24;5.18;;;1.83;;
16248;SDS011;8232;51.678;6.610;2022-08-30T13:28:55;4.05;;;1.52;;
16248;SDS011;8232;51.678;6.610;2022-08-30T13:31:23;4.38;;;1.60;;
16248;SDS011;8232;51.678;6.610;2022-08-30T13:33:51;3.47;;;1.30;;
16248;SDS011;8232;51.678;6.610;2022-08-30T13:36:19;3.92;;;1.63;;
16248;SDS011;8232;51.678;6.610;2022-08-30T13:38:48;5.97;;;1.50;;
16248;SDS011;8232;51.678;6.610;2022-08-30T13:41:15;4.85;;;1.70;;
16248;SDS011;8232;51.678;6.610;2022-08-30T13:43:44;2.80;;;1.50;;
16248;SDS011;8232;51.678;6.610;2022-08-30T13:46:12;2.55;;;1.50;;
16248;SDS011;8232;51.678;6.610;2022-08-30T13:48:40;2.70;;;1.30;;
16248;SDS011;8232;51.678;6.610;2022-08-30T13:51:07;2.72;;;1.50;;
16248;SDS011;8232;51.678;6.610;2022-08-30T13:53:34;9.60;;;2.42;;
16248;SDS011;8232;51.678;6.610;2022-08-30T13:56:02;15.20;;;3.28;;
16248;SDS011;8232;51.678;6.610;2022-08-30T13:58:30;5.05;;;1.55;;
16248;SDS011;8232;51.678;6.610;2022-08-30T14:00:57;2.15;;;1.50;;
16248;SDS011;8232;51.678;6.610;2022-08-30T14:03:25;1.85;;;1.40;;
16248;SDS011;8232;51.678;6.610;2022-08-30T14:05:52;5.30;;;1.73;;
16248;SDS011;8232;51.678;6.610;2022-08-30T14:08:20;5.88;;;1.75;;
16248;SDS011;8232;51.678;6.610;2022-08-30T14:10:48;7.25;;;1.75;;
16248;SDS011;8232;51.678;6.610;2022-08-30T14:13:15;8.02;;;1.67;;
16248;SDS011;8232;51.678;6.610;2022-08-30T14:15:42;3.95;;;1.52;;
16248;SDS011;8232;51.678;6.610;2022-08-30T14:18:09;2.58;;;1.42;;
16248;SDS011;8232;51.678;6.610;2022-08-30T14:20:38;2.60;;;1.55;;
16248;SDS011;8232;51.678;6.610;2022-08-30T14:23:05;2.00;;;1.38;;
16248;SDS011;8232;51.678;6.610;2022-08-30T14:25:32;4.43;;;1.50;;
16248;SDS011;8232;51.678;6.610;2022-08-30T14:27:59;6.40;;;1.75;;
16248;SDS011;8232;51.678;6.610;2022-08-30T14:30:26;4.30;;;1.67;;
16248;SDS011;8232;51.678;6.610;2022-08-30T14:32:52;7.90;;;1.42;;
16248;SDS011;8232;51.678;6.610;2022-08-30T14:35:19;4.88;;;1.90;;
16248;SDS011;8232;51.678;6.610;2022-08-30T14:37:48;3.92;;;1.60;;
16248;SDS011;8232;51.678;6.610;2022-08-30T14:40:16;5.43;;;1.50;;
16248;SDS011;8232;51.678;6.610;2022-08-30T14:42:43;5.57;;;1.60;;
16248;SDS011;8232;51.678;6.610;2022-08-30T14:45:10;4.65;;;1.50;;
16248;SDS011;8232;51.678;6.610;2022-08-30T14:47:37;4.75;;;1.50;;
16248;SDS011;8232;51.678;6.610;2022-08-30T14:50:05;2.22;;;1.45;;
16248;SDS011;8232;51.678;6.610;2022-08-30T14:52:32;3.25;;;1.45;;
16248;SDS011;8232;51.678;6.610;2022-08-30T14:55:03;4.68;;;1.40;;
16248;SDS011;8232;51.678;6.610;2022-08-30T14:57:32;2.95;;;1.77;;
16248;SDS011;8232;51.678;6.610;2022-08-30T14:59:59;2.88;;;1.92;;
16248;SDS011;8232;51.678;6.610;2022-08-30T15:02:26;5.00;;;1.40;;
16248;SDS011;8232;51.678;6.610;2022-08-30T15:04:53;5.18;;;1.75;;
16248;SDS011;8232;51.678;6.610;2022-08-30T15:07:20;3.55;;;1.40;;
16248;SDS011;8232;51.678;6.610;2022-08-30T15:09:47;3.97;;;1.70;;
16248;SDS011;8232;51.678;6.610;2022-08-30T15:12:15;5.05;;;1.80;;
16248;SDS011;8232;51.678;6.610;2022-08-30T15:14:42;4.32;;;1.55;;
16248;SDS011;8232;51.678;6.610;2022-08-30T15:17:08;3.65;;;1.52;;
16248;SDS011;8232;51.678;6.610;2022-08-30T15:19:37;3.22;;;1.65;;
16248;SDS011;8232;51.678;6.610;2022-08-30T15:22:04;2.28;;;1.40;;
16248;SDS011;8232;51.678;6.610;2022-08-30T15:24:33;9.00;;;1.90;;
16248;SDS011;8232;51.678;6.610;2022-08-30T15:27:00;1.77;;;1.45;;
16248;SDS011;8232;51.678;6.610;2022-08-30T15:29:29;6.88;;;1.75;;
16248;SDS011;8232;51.678;6.610;2022-08-30T15:31:56;3.00;;;1.38;;
16248;SDS011;8232;51.678;6.610;2022-08-30T15:34:23;2.10;;;1.55;;
16248;SDS011;8232;51.678;6.610;2022-08-30T15:36:50;5.03;;;1.75;;